x

La Perouse Bank (46206) Wave Buoy

4:00am - Mon 2nd May 2016 All times are PDT. -7 hours from GMT.

  • Sig Wave height 7.2ft
  • Peak Period 12s
  • Wind
    7mph, 9mph gusts
  • Sea Temp 55°f
  • Air Temp 56°f
  • Sea Pressure 1013.2mb
  • La Perouse Bank
  • La Perouse Bank

More Historic Weather Station data

Upgrade to MSW Pro to gain access to the past 30 days of data for over 8000 Wavebouys and Weather Stations around the globe.

Join Pro

Comparision Forecast

View Surf forecast
   
Mon 05/02 4:00am 7ft 12s 7 9 mph 1013.2mb 55f 56f
3:00am 8ft 12s 7 9 mph 1013.4mb 55f 56f
2:00am 7.5ft 15s 7
mph
1013.4mb 55f 56f
1:00am 6ft 13s 4 7 mph 1013.5mb 55f 56f
12:00am 6ft 13s 4 7 mph 1013.6mb 55f 56f
Sun 05/01 11:00pm 6ft 12s 4 7 mph 1013.6mb 55f 56f
10:00pm 6ft 14s 2 4 mph 1013.9mb 56f 56f
9:00pm 6ft 13s 2 4 mph 1013.9mb 56f 56f
8:00pm 7ft 12s 4 7 mph 1014mb 56f 57f
7:00pm 6ft 12s 4 7 mph 1014.4mb 55f 57f
6:00pm 7ft 12s 4 7 mph 1015.1mb 55f 58f
5:00pm 7ft 12s 2 4 mph 1016.2mb 55f 58f
4:00pm 6.5ft 12s 4 7 mph 1017.1mb 56f 58f
3:00pm 7ft 12s 2 7 mph 1018mb 54f 57f
2:00pm 6.5ft 12s 4 7 mph 1018.6mb 54f 56f
1:00pm 6ft 13s 4 7 mph 1019.2mb 54f 56f
12:00pm 7ft 13s 4 9 mph 1020.2mb 54f 55f
11:00am 6ft 13s 7 9 mph 1020.8mb 53f 54f
10:00am 6ft 14s 7 9 mph 1021.4mb 53f 54f
9:00am 6ft 13s 4 7 mph 1022.1mb 53f 53f
8:00am 7ft 14s 4 7 mph 1022.6mb 53f 53f
7:00am 6ft 9s 7 9 mph 1023.1mb 53f 53f
6:00am 6ft 11s 9
mph
1023.6mb 53f 52f
5:00am 7ft 13s 9 13 mph 1024.1mb 53f 52f
4:00am 6.5ft 11s 11 13 mph 1024.5mb 53f 52f
3:00am 6.5ft 11s 13 16 mph 1024.8mb 53f 52f
2:00am 6ft 14s 11 13 mph 1025.3mb 53f 52f
1:00am 6ft 12s 13 18 mph 1025.9mb 53f 52f
12:00am 6ft 13s 13 18 mph 1026.5mb 53f 52f
Sat 04/30 11:00pm 5.5ft 13s 16 20 mph 1027mb 53f 52f
10:00pm  -   -  18
mph
1027.4mb 53f 52f
9:00pm 5.5ft 14s 18 20 mph 1027.7mb 53f 52f
8:00pm 5.5ft 10s 18 20 mph 1027.9mb 53f 52f
7:00pm 5.5ft 10s 16 18 mph 1028mb 53f 52f
6:00pm 6ft 10s 16 18 mph 1028.5mb 54f 53f
5:00pm 5.5ft 11s 18 20 mph 1028.8mb 54f 52f
3:00pm 5.5ft 10s 13 18 mph 1029.4mb 54f 52f
2:00pm 6ft 10s 11 13 mph 1029.3mb 53f 53f
1:00pm 6ft 10s 7 9 mph 1029.7mb 53f 53f
12:00pm 6ft 10s  -  2 mph 1029.6mb 53f 54f
11:00am 6ft 10s 9 13 mph 1029.5mb 53f 52f
10:00am 7ft 11s 2 9 mph 1028.5mb 55f 52f
9:00am 7.5ft 11s 4 9 mph 1028.3mb 53f 52f
7:00am 7ft 8s 9 11 mph 1027.3mb 52f 52f
6:00am 7ft 10s 13 16 mph 1027mb 52f 51f
5:00am 8ft 9s 13 18 mph 1026.3mb 52f 51f
4:00am 8ft 10s 13 18 mph 1025.8mb 52f 52f
3:00am 9ft 8s 18 20 mph 1025.4mb 53f 51f
2:00am 9ft 8s 22 27 mph 1024.9mb 52f 52f
1:00am 10ft 9s 22 27 mph 1024.2mb 52f 52f
12:00am 10ft 8s 22 29 mph 1023.8mb 53f 52f
Fri 04/29 11:00pm 11.5ft 8s 27 34 mph 1023.5mb 53f 52f
10:00pm 12ft 8s 27 31 mph 1023.2mb 53f 52f
9:00pm 12ft 8s 29 34 mph 1022.4mb 53f 52f
8:00pm 11ft 8s 29 36 mph 1022mb 53f 52f
7:00pm  -   -  27
mph
1021.6mb - 52f
6:00pm 10.5ft 8s 27 34 mph 1021.8mb 53f 52f
5:00pm 10.5ft 8s 27 34 mph 1021.4mb 53f 52f
4:00pm 9ft 8s 27 36 mph 1021.6mb 53f 52f
3:00pm 8.5ft 8s 27 36 mph 1021.3mb 53f 52f
2:00pm 9ft 12s 25 31 mph 1021.1mb 53f 52f
1:00pm 8ft 9s 25 29 mph 1021.2mb 53f 52f
12:00pm 7.5ft 10s 22 27 mph 1020.9mb 53f 51f
11:00am 7.5ft 10s 20 25 mph 1021mb 53f 51f
10:00am 7ft 12s 20 25 mph 1020.8mb 53f 51f
9:00am 7ft 12s 16 20 mph 1020.6mb 53f 51f
8:00am 7ft 11s 11 13 mph 1020.4mb 53f 50f
7:00am 7ft 11s 9 11 mph 1020.1mb 53f 50f
6:00am 6.5ft 10s 7 9 mph 1019.8mb 53f 50f
5:00am 7ft 13s 7 9 mph 1019.7mb 53f 50f
4:00am 6ft 12s 4 7 mph 1019.9mb 53f 50f
3:00am 6ft 13s 4 7 mph 1019.8mb 53f 50f
2:00am 6ft 12s 4 7 mph 1020mb 53f 50f
1:00am 6ft 12s 7 9 mph 1020.2mb 53f 49f
12:00am 6ft 13s 9 13 mph 1020.5mb 53f 50f
Thu 04/28 11:00pm 6.5ft 13s 7 9 mph 1020.5mb 53f 51f
10:00pm 7ft 14s 7 9 mph 1020.6mb 53f 51f
9:00pm 7ft 14s 9 11 mph 1020.4mb 53f 51f
8:00pm 7.5ft 14s 9 11 mph 1020.3mb 53f 51f
7:00pm 8ft 12s 9 13 mph 1020.3mb 53f 51f
6:00pm 8ft 14s 9 13 mph 1020.5mb 53f 50f
5:00pm 7.5ft 12s 9 13 mph 1020.6mb 53f 51f
4:00pm 8ft 14s 9 11 mph 1020.9mb 53f 51f
3:00pm 9ft 12s 7 9 mph 1021mb 53f 51f
2:00pm 9ft 14s 11 16 mph 1021.3mb 53f 50f
1:00pm 9ft 14s 13 18 mph 1021.2mb 53f 51f